createdAt,value
2023-05-19T00:00:21.815Z,49.26
2023-05-19T00:01:24.867Z,49.17
2023-05-19T00:02:27.378Z,49.62
2023-05-19T00:03:30.428Z,49.32
2023-05-19T00:04:33.534Z,49.18
2023-05-19T00:05:46.137Z,49.33
2023-05-19T00:06:50.874Z,49.26
2023-05-19T00:07:53.820Z,49.35
2023-05-19T00:08:57.616Z,49.14
2023-05-19T00:09:59.374Z,49.23
2023-05-19T00:11:01.821Z,49.25
2023-05-19T00:12:05.919Z,49.26
2023-05-19T00:13:07.486Z,49.03
2023-05-19T00:14:11.523Z,49.21
2023-05-19T00:15:13.417Z,49.50
2023-05-19T00:16:15.289Z,49.60
2023-05-19T00:17:17.045Z,49.38
2023-05-19T00:18:56.168Z,49.33
2023-05-19T00:20:13.048Z,49.92
2023-05-19T00:21:15.160Z,49.75
2023-05-19T00:22:19.653Z,50.14
2023-05-19T00:23:23.400Z,50.30
2023-05-19T00:24:28.405Z,50.24
2023-05-19T00:25:29.883Z,50.29
2023-05-19T00:26:33.529Z,50.33
2023-05-19T00:27:39.383Z,50.07
2023-05-19T00:28:42.522Z,50.42
2023-05-19T00:29:44.045Z,50.15
2023-05-19T00:30:45.804Z,50.04
2023-05-19T00:31:47.350Z,49.95
2023-05-19T00:32:51.526Z,49.74
2023-05-19T00:33:55.627Z,49.97
2023-05-19T00:34:57.247Z,49.77
2023-05-19T00:35:58.838Z,50.33
2023-05-19T00:37:00.410Z,50.29
2023-05-19T00:38:01.913Z,50.18
2023-05-19T00:39:03.562Z,50.43
2023-05-19T00:40:06.641Z,50.36
2023-05-19T00:41:08.296Z,50.08
2023-05-19T00:42:12.431Z,50.36
2023-05-19T00:43:16.562Z,50.62
2023-05-19T00:44:18.132Z,50.59
2023-05-19T00:45:19.734Z,50.47
2023-05-19T00:46:23.089Z,50.53
2023-05-19T00:47:24.747Z,50.62
2023-05-19T00:48:26.435Z,50.68
2023-05-19T00:49:30.291Z,50.53
2023-05-19T00:50:32.094Z,50.50
2023-05-19T00:51:33.799Z,50.21
2023-05-19T00:52:35.439Z,50.72
2023-05-19T00:53:39.304Z,50.81
2023-05-19T00:54:40.874Z,50.50
2023-05-19T00:55:42.750Z,50.75
2023-05-19T00:56:45.594Z,50.30
2023-05-19T00:57:49.170Z,50.39
2023-05-19T00:58:51.300Z,50.65
2023-05-19T00:59:52.971Z,50.61
2023-05-19T01:01:02.982Z,51.06
2023-05-19T01:02:04.702Z,51.09
2023-05-19T01:03:13.479Z,50.68
2023-05-19T01:04:25.523Z,51.16
2023-05-19T01:05:27.108Z,50.83
2023-05-19T01:06:29.614Z,50.98
2023-05-19T01:07:31.184Z,50.93
2023-05-19T01:08:33.558Z,51.17
2023-05-19T01:09:37.443Z,51.48
2023-05-19T01:10:45.790Z,51.26
2023-05-19T01:11:47.484Z,51.06
2023-05-19T01:12:49.039Z,51.51
2023-05-19T01:13:51.206Z,51.10
2023-05-19T01:14:52.854Z,50.93
2023-05-19T01:16:01.145Z,51.27
2023-05-19T01:17:25.566Z,51.40
2023-05-19T01:18:32.358Z,51.34
2023-05-19T01:19:47.304Z,51.19
2023-05-19T01:20:56.820Z,51.39
2023-05-19T01:22:13.485Z,51.53
2023-05-19T01:23:17.742Z,51.63
2023-05-19T01:24:28.133Z,52.00
2023-05-19T01:26:01.414Z,52.09
2023-05-19T01:27:02.899Z,51.73
2023-05-19T01:28:25.964Z,51.79
2023-05-19T01:29:39.584Z,51.86
2023-05-19T01:30:42.175Z,51.91
2023-05-19T01:31:47.905Z,52.03
2023-05-19T01:32:52.528Z,51.81
2023-05-19T01:33:59.179Z,52.06
2023-05-19T01:35:01.246Z,51.84
2023-05-19T01:36:03.616Z,51.88
2023-05-19T01:37:07.582Z,51.82
2023-05-19T01:38:12.304Z,51.80
2023-05-19T01:39:15.227Z,51.74
2023-05-19T01:40:17.556Z,51.62
2023-05-19T01:41:22.333Z,51.84
2023-05-19T01:42:27.272Z,52.07
2023-05-19T01:43:29.210Z,52.35
2023-05-19T01:44:31.604Z,52.21
2023-05-19T01:45:33.628Z,52.56
2023-05-19T01:46:35.825Z,52.41
2023-05-19T01:47:41.223Z,52.29
2023-05-19T01:48:45.385Z,52.74
2023-05-19T01:49:48.298Z,52.63
2023-05-19T01:50:51.913Z,52.38
2023-05-19T01:51:53.477Z,52.29
2023-05-19T01:52:57.218Z,52.50
2023-05-19T01:53:58.902Z,52.32
2023-05-19T01:55:00.885Z,52.30
2023-05-19T01:56:04.838Z,52.60
2023-05-19T01:57:06.482Z,52.46
2023-05-19T01:58:26.613Z,52.46
2023-05-19T01:59:37.270Z,52.42
2023-05-19T02:00:56.882Z,52.57
2023-05-19T02:02:01.186Z,52.39
2023-05-19T02:03:14.598Z,52.36
2023-05-19T02:04:31.498Z,52.60
2023-05-19T02:05:40.664Z,52.41
2023-05-19T02:06:46.071Z,52.58
2023-05-19T02:07:54.345Z,52.68
2023-05-19T02:09:03.095Z,52.67
2023-05-19T02:10:10.682Z,52.60
2023-05-19T02:11:15.316Z,52.92
2023-05-19T02:12:24.293Z,53.04
2023-05-19T02:13:29.780Z,52.72
2023-05-19T02:14:39.088Z,52.91
2023-05-19T02:15:45.343Z,52.75
2023-05-19T02:16:48.008Z,52.74
2023-05-19T02:17:51.804Z,52.85
2023-05-19T02:18:54.172Z,52.99
2023-05-19T02:19:55.929Z,53.23
2023-05-19T02:20:57.505Z,53.36
2023-05-19T02:22:01.739Z,53.63
2023-05-19T02:23:03.273Z,53.25
2023-05-19T02:24:07.493Z,53.07
2023-05-19T02:25:09.710Z,53.05
2023-05-19T02:26:11.663Z,53.13
2023-05-19T02:27:13.281Z,53.50
2023-05-19T02:28:14.979Z,53.24
2023-05-19T02:29:16.634Z,53.14
2023-05-19T02:30:18.237Z,53.79
2023-05-19T02:31:19.877Z,53.20
2023-05-19T02:32:21.843Z,53.04
2023-05-19T02:33:26.045Z,53.00
2023-05-19T02:34:27.831Z,53.13
2023-05-19T02:35:31.935Z,53.21
2023-05-19T02:36:37.396Z,53.27
2023-05-19T02:37:39.716Z,52.99
2023-05-19T02:38:41.327Z,52.99
2023-05-19T02:39:45.088Z,53.01
2023-05-19T02:40:47.225Z,52.84
2023-05-19T02:41:51.215Z,53.15
2023-05-19T02:42:52.732Z,52.74
2023-05-19T02:43:54.356Z,53.02
2023-05-19T02:44:55.945Z,52.85
2023-05-19T02:45:57.492Z,53.05
2023-05-19T02:47:00.993Z,53.09
2023-05-19T02:48:04.716Z,53.18
2023-05-19T02:49:06.437Z,53.30
2023-05-19T02:50:08.534Z,53.20
2023-05-19T02:51:12.861Z,53.21
2023-05-19T02:52:14.394Z,53.57
2023-05-19T02:53:16.165Z,53.52
2023-05-19T02:54:17.730Z,53.17
2023-05-19T02:55:19.443Z,53.12
2023-05-19T02:56:21.755Z,53.17
2023-05-19T02:57:26.769Z,53.82
2023-05-19T02:58:30.766Z,53.58
2023-05-19T02:59:34.458Z,53.67
2023-05-19T03:00:36.056Z,53.81
2023-05-19T03:01:40.542Z,53.65
2023-05-19T03:02:44.017Z,53.75
2023-05-19T03:03:45.790Z,53.90
2023-05-19T03:04:47.318Z,53.80
2023-05-19T03:05:51.941Z,53.99
2023-05-19T03:06:55.269Z,54.01
2023-05-19T03:07:56.918Z,53.50
2023-05-19T03:08:58.764Z,53.77
2023-05-19T03:10:06.607Z,53.64
2023-05-19T03:11:08.108Z,53.76
2023-05-19T03:12:09.805Z,53.79
2023-05-19T03:13:11.429Z,53.91
2023-05-19T03:14:14.020Z,54.01
2023-05-19T03:15:16.427Z,54.11
2023-05-19T03:16:17.958Z,54.29
2023-05-19T03:17:19.714Z,54.10
2023-05-19T03:18:21.394Z,53.77
2023-05-19T03:19:23.116Z,54.31
2023-05-19T03:20:24.648Z,54.06
2023-05-19T03:21:28.728Z,53.96
2023-05-19T03:22:30.519Z,53.87
2023-05-19T03:23:32.083Z,53.98
2023-05-19T03:24:33.672Z,53.77
2023-05-19T03:25:35.203Z,53.77
2023-05-19T03:26:36.729Z,53.91
2023-05-19T03:27:38.427Z,54.03
2023-05-19T03:28:40.942Z,53.98
2023-05-19T03:29:42.419Z,53.54
2023-05-19T03:30:46.585Z,53.90
2023-05-19T03:31:52.721Z,54.09
2023-05-19T03:32:54.424Z,53.97
2023-05-19T03:33:57.886Z,53.75
2023-05-19T03:34:59.634Z,53.88
2023-05-19T03:36:01.443Z,53.93
2023-05-19T03:37:06.948Z,53.72
2023-05-19T03:38:11.401Z,53.95
2023-05-19T03:39:16.791Z,53.91
2023-05-19T03:40:21.944Z,53.85
2023-05-19T03:41:24.574Z,53.60
2023-05-19T03:42:26.330Z,53.29
2023-05-19T03:43:28.228Z,53.85
2023-05-19T03:44:37.021Z,54.01
2023-05-19T03:45:41.869Z,53.81
2023-05-19T03:47:03.469Z,54.04
2023-05-19T03:48:35.135Z,53.91
2023-05-19T03:49:58.005Z,54.22
2023-05-19T03:51:23.588Z,53.99
2023-05-19T03:52:29.028Z,54.01
2023-05-19T03:53:41.262Z,54.14
2023-05-19T03:54:43.200Z,54.13
2023-05-19T03:55:44.862Z,53.87
2023-05-19T03:56:47.942Z,54.06
2023-05-19T03:57:49.463Z,54.17
2023-05-19T03:58:51.078Z,54.43
2023-05-19T03:59:53.164Z,54.14
2023-05-19T04:00:55.364Z,53.85
2023-05-19T04:01:57.843Z,54.03
2023-05-19T04:03:01.101Z,53.77
2023-05-19T04:04:02.888Z,53.87
2023-05-19T04:05:07.541Z,54.38
2023-05-19T04:06:14.581Z,54.03
2023-05-19T04:07:16.096Z,54.00
2023-05-19T04:08:17.616Z,54.03
2023-05-19T04:09:19.779Z,54.13
2023-05-19T04:10:21.643Z,54.32
2023-05-19T04:11:23.251Z,54.34
2023-05-19T04:12:26.433Z,54.60
2023-05-19T04:13:27.975Z,54.71
2023-05-19T04:14:29.626Z,54.59
2023-05-19T04:15:31.359Z,54.26
2023-05-19T04:16:33.081Z,54.87
2023-05-19T04:17:35.001Z,54.74
2023-05-19T04:18:36.772Z,54.66
2023-05-19T04:19:39.337Z,54.40
2023-05-19T04:20:40.846Z,54.76
2023-05-19T04:21:42.373Z,54.55
2023-05-19T04:22:46.152Z,54.63
2023-05-19T04:23:47.914Z,54.31
2023-05-19T04:24:53.073Z,54.77
2023-05-19T04:25:57.037Z,54.86
2023-05-19T04:27:02.667Z,54.80
2023-05-19T04:28:04.321Z,54.49
2023-05-19T04:29:05.856Z,54.24
2023-05-19T04:30:15.746Z,54.31
2023-05-19T04:31:55.999Z,54.12
2023-05-19T04:33:05.161Z,54.00
2023-05-19T04:34:10.011Z,54.39
2023-05-19T04:35:15.458Z,54.08
2023-05-19T04:36:21.605Z,53.97
2023-05-19T04:37:25.887Z,53.87
2023-05-19T04:38:29.971Z,53.73
2023-05-19T04:39:31.660Z,53.96
2023-05-19T04:40:34.247Z,53.76
2023-05-19T04:41:36.048Z,53.66
2023-05-19T04:42:41.546Z,53.85
2023-05-19T04:43:44.609Z,53.72
2023-05-19T04:44:49.267Z,53.78
2023-05-19T04:45:51.523Z,53.89
2023-05-19T04:46:57.841Z,53.92
2023-05-19T04:47:59.725Z,53.60
2023-05-19T04:49:02.018Z,54.09
2023-05-19T04:50:04.241Z,53.75
2023-05-19T04:51:06.071Z,53.98
2023-05-19T04:52:10.625Z,53.88
2023-05-19T04:53:14.774Z,53.73
2023-05-19T04:54:19.108Z,53.77
2023-05-19T04:55:20.956Z,53.48
2023-05-19T04:56:23.998Z,53.25
2023-05-19T04:57:25.642Z,53.36
2023-05-19T04:58:27.572Z,53.31
2023-05-19T04:59:29.525Z,53.14
2023-05-19T05:00:31.781Z,53.17
2023-05-19T05:01:40.413Z,53.06
2023-05-19T05:02:45.787Z,52.68
2023-05-19T05:03:48.306Z,52.80
2023-05-19T05:04:50.740Z,52.79
2023-05-19T05:05:52.722Z,52.48
2023-05-19T05:06:54.266Z,52.67
2023-05-19T05:07:56.289Z,52.41
2023-05-19T05:09:04.098Z,52.26
2023-05-19T05:10:06.763Z,52.35
2023-05-19T05:11:08.573Z,52.33
2023-05-19T05:12:10.705Z,52.29
2023-05-19T05:13:14.224Z,52.29
2023-05-19T05:14:16.930Z,51.83
2023-05-19T05:15:18.822Z,51.60
2023-05-19T05:16:23.713Z,51.57
2023-05-19T05:17:25.753Z,51.61
2023-05-19T05:18:27.541Z,51.40
2023-05-19T05:19:29.287Z,51.12
2023-05-19T05:20:33.648Z,51.24
2023-05-19T05:21:35.730Z,51.14
2023-05-19T05:22:38.660Z,51.15
2023-05-19T05:23:41.471Z,50.87
2023-05-19T05:24:43.084Z,51.04
2023-05-19T05:25:44.941Z,50.99
2023-05-19T05:26:46.714Z,50.72
2023-05-19T05:27:51.277Z,50.65
2023-05-19T05:28:53.141Z,50.77
2023-05-19T05:29:55.312Z,50.75
2023-05-19T05:30:58.096Z,50.55
2023-05-19T05:31:59.788Z,50.38
2023-05-19T05:33:02.018Z,50.15
2023-05-19T05:34:09.421Z,49.74
2023-05-19T05:35:15.163Z,49.76
2023-05-19T05:36:17.374Z,49.63
2023-05-19T05:37:19.030Z,49.65
2023-05-19T05:38:25.454Z,49.65
2023-05-19T05:39:29.220Z,49.53
2023-05-19T05:40:30.836Z,49.45
2023-05-19T05:41:37.427Z,49.57
2023-05-19T05:42:44.756Z,49.74
2023-05-19T05:43:46.334Z,49.67
2023-05-19T05:44:50.261Z,49.54
2023-05-19T05:45:52.732Z,49.38
2023-05-19T05:46:54.972Z,49.25
2023-05-19T05:47:56.822Z,49.10
2023-05-19T05:48:58.644Z,48.89
2023-05-19T05:50:00.280Z,49.07
2023-05-19T05:51:01.984Z,48.92
2023-05-19T05:52:07.786Z,48.72
2023-05-19T05:53:18.776Z,48.81
2023-05-19T05:54:24.812Z,48.53
2023-05-19T05:55:27.581Z,48.52
2023-05-19T05:56:29.669Z,48.72
2023-05-19T05:57:35.340Z,48.93
2023-05-19T05:58:37.868Z,48.60
2023-05-19T05:59:40.689Z,48.42
2023-05-19T06:00:48.503Z,48.52
2023-05-19T06:01:50.558Z,48.56
2023-05-19T06:02:53.906Z,48.48
2023-05-19T06:03:55.571Z,47.97
2023-05-19T06:04:58.960Z,48.29
2023-05-19T06:06:02.744Z,48.32
2023-05-19T06:07:04.412Z,48.27
2023-05-19T06:08:09.740Z,48.10
2023-05-19T06:09:14.112Z,48.08
2023-05-19T06:10:15.636Z,48.09
2023-05-19T06:11:17.339Z,47.77
2023-05-19T06:12:18.965Z,48.15
2023-05-19T06:13:24.204Z,48.04
2023-05-19T06:14:26.166Z,48.08
2023-05-19T06:15:46.289Z,48.07
2023-05-19T06:16:55.153Z,48.26
2023-05-19T06:17:56.796Z,48.15
2023-05-19T06:19:00.822Z,48.28
2023-05-19T06:20:02.992Z,47.95
2023-05-19T06:21:04.591Z,47.83
2023-05-19T06:22:08.643Z,47.67
2023-05-19T06:23:10.238Z,47.27
2023-05-19T06:24:14.335Z,47.54
2023-05-19T06:25:16.855Z,47.57
2023-05-19T06:26:20.960Z,47.18
2023-05-19T06:27:22.578Z,47.30
2023-05-19T06:28:24.801Z,47.53
2023-05-19T06:29:26.960Z,46.70
2023-05-19T06:30:30.550Z,46.58
2023-05-19T06:31:40.858Z,46.61
2023-05-19T06:32:46.172Z,46.69
2023-05-19T06:33:47.919Z,46.83
2023-05-19T06:34:54.284Z,46.83
2023-05-19T06:35:55.912Z,46.50
2023-05-19T06:36:57.637Z,46.71
2023-05-19T06:37:59.712Z,46.61
2023-05-19T06:39:02.704Z,46.54
2023-05-19T06:40:09.257Z,46.29
2023-05-19T06:41:15.074Z,46.03
2023-05-19T06:42:46.528Z,45.81
2023-05-19T06:43:51.097Z,45.37
2023-05-19T06:44:55.858Z,45.04
2023-05-19T06:46:02.042Z,45.18
2023-05-19T06:47:06.626Z,45.16
2023-05-19T06:48:08.563Z,45.16
2023-05-19T06:49:11.167Z,45.23
2023-05-19T06:50:21.280Z,45.39
2023-05-19T06:51:24.342Z,45.11
2023-05-19T06:52:30.297Z,45.23
2023-05-19T06:53:33.999Z,45.13
2023-05-19T06:54:37.678Z,45.18
2023-05-19T06:55:54.371Z,44.72
2023-05-19T06:57:00.528Z,44.94
2023-05-19T06:58:02.772Z,44.69
2023-05-19T06:59:05.081Z,44.78
2023-05-19T07:00:17.570Z,44.69
2023-05-19T07:01:22.815Z,44.73
2023-05-19T07:02:33.672Z,44.63
2023-05-19T07:03:35.604Z,44.34
2023-05-19T07:04:37.468Z,44.30
2023-05-19T07:05:38.989Z,44.94
2023-05-19T07:06:40.706Z,44.27
2023-05-19T07:07:43.807Z,44.15
2023-05-19T07:08:48.506Z,44.11
2023-05-19T07:09:51.930Z,43.96
2023-05-19T07:10:54.184Z,44.26
2023-05-19T07:11:58.506Z,44.08
2023-05-19T07:13:00.341Z,43.92
2023-05-19T07:14:05.923Z,43.92
2023-05-19T07:15:07.873Z,43.65
2023-05-19T07:16:10.276Z,43.74
2023-05-19T07:17:12.723Z,43.70
2023-05-19T07:18:19.820Z,43.91
2023-05-19T07:19:24.126Z,43.64
2023-05-19T07:20:26.664Z,43.92
2023-05-19T07:21:29.602Z,44.01
2023-05-19T07:22:31.523Z,43.82
2023-05-19T07:23:35.657Z,43.71
2023-05-19T07:24:37.264Z,43.58
2023-05-19T07:25:38.974Z,43.88
2023-05-19T07:26:43.309Z,43.47
2023-05-19T07:27:45.713Z,43.25
2023-05-19T07:28:47.404Z,42.91
2023-05-19T07:29:48.971Z,42.89
2023-05-19T07:30:53.222Z,42.75
2023-05-19T07:31:57.864Z,42.81
2023-05-19T07:32:59.840Z,42.74
2023-05-19T07:34:03.038Z,42.24
2023-05-19T07:35:08.801Z,42.15
2023-05-19T07:36:10.497Z,42.17
2023-05-19T07:37:14.152Z,42.14
2023-05-19T07:38:15.896Z,42.14
2023-05-19T07:39:17.705Z,42.49
2023-05-19T07:40:19.711Z,42.27
2023-05-19T07:41:21.832Z,42.20
2023-05-19T07:42:23.761Z,41.92
2023-05-19T07:43:25.454Z,41.91
2023-05-19T07:44:27.666Z,42.37
2023-05-19T07:45:29.447Z,42.23
2023-05-19T07:46:34.309Z,42.06
2023-05-19T07:47:36.177Z,41.87
2023-05-19T07:48:40.159Z,42.01
2023-05-19T07:49:41.819Z,41.73
2023-05-19T07:50:43.484Z,41.97
2023-05-19T07:51:45.122Z,41.77
2023-05-19T07:52:46.638Z,42.13
2023-05-19T07:53:51.425Z,41.82
2023-05-19T07:54:53.267Z,41.47
2023-05-19T07:55:55.864Z,41.29
2023-05-19T07:56:58.808Z,41.45
2023-05-19T07:58:00.564Z,41.91
2023-05-19T07:59:03.824Z,41.90
2023-05-19T08:00:10.097Z,41.91
2023-05-19T08:01:13.434Z,41.80
2023-05-19T08:02:14.974Z,41.79
2023-05-19T08:03:20.807Z,41.42
2023-05-19T08:04:24.889Z,41.30
2023-05-19T08:05:30.047Z,41.33
2023-05-19T08:06:35.204Z,41.48
2023-05-19T08:07:37.198Z,41.30
2023-05-19T08:08:38.798Z,41.79
2023-05-19T08:09:40.556Z,41.15
2023-05-19T08:10:42.255Z,41.47
2023-05-19T08:11:49.827Z,41.49
2023-05-19T08:12:53.944Z,41.48
2023-05-19T08:13:58.086Z,41.10
2023-05-19T08:15:01.362Z,41.08
2023-05-19T08:16:03.999Z,41.30
2023-05-19T08:17:06.148Z,41.57
2023-05-19T08:18:07.874Z,41.45
2023-05-19T08:19:09.718Z,41.49
2023-05-19T08:20:16.196Z,41.18
2023-05-19T08:21:17.903Z,41.05
2023-05-19T08:22:19.598Z,41.38
2023-05-19T08:23:22.012Z,41.18
2023-05-19T08:24:23.679Z,40.94
2023-05-19T08:25:25.301Z,41.24
2023-05-19T08:26:29.536Z,41.05
2023-05-19T08:27:33.777Z,40.90
2023-05-19T08:28:35.691Z,41.18
2023-05-19T08:29:38.240Z,41.66
2023-05-19T08:30:39.875Z,41.51
2023-05-19T08:31:41.575Z,41.40
2023-05-19T08:32:43.247Z,41.52
2023-05-19T08:33:45.628Z,41.30
2023-05-19T08:34:47.340Z,41.30
2023-05-19T08:35:49.029Z,41.56
2023-05-19T08:36:50.616Z,41.87
2023-05-19T08:37:54.406Z,41.41
2023-05-19T08:38:56.252Z,40.80
2023-05-19T08:39:57.943Z,40.98
2023-05-19T08:40:59.628Z,41.25
2023-05-19T08:42:02.389Z,41.22
2023-05-19T08:43:04.340Z,41.06
2023-05-19T08:44:06.010Z,41.17
2023-05-19T08:45:07.765Z,41.11
2023-05-19T08:46:13.832Z,40.55
2023-05-19T08:47:16.250Z,40.84
2023-05-19T08:48:21.666Z,40.70
2023-05-19T08:49:28.074Z,40.31
2023-05-19T08:50:33.499Z,40.40
2023-05-19T08:52:06.336Z,40.32
2023-05-19T08:53:33.984Z,39.98
2023-05-19T08:54:52.559Z,40.22
2023-05-19T08:56:01.455Z,40.04
2023-05-19T08:57:06.215Z,40.07
2023-05-19T08:58:12.497Z,40.37
2023-05-19T08:59:17.413Z,40.48
2023-05-19T09:00:22.726Z,40.51
2023-05-19T09:01:28.883Z,40.13
2023-05-19T09:02:31.154Z,39.59
2023-05-19T09:03:38.079Z,39.55
2023-05-19T09:04:41.581Z,39.59
2023-05-19T09:05:43.607Z,39.58
2023-05-19T09:06:45.466Z,39.31
2023-05-19T09:07:48.336Z,39.15
2023-05-19T09:08:49.995Z,38.67
2023-05-19T09:09:54.018Z,38.53
2023-05-19T09:10:55.566Z,38.86
2023-05-19T09:11:58.051Z,38.56
2023-05-19T09:12:59.736Z,38.46
2023-05-19T09:14:01.387Z,38.82
2023-05-19T09:15:04.767Z,38.32
2023-05-19T09:16:06.953Z,38.13
2023-05-19T09:17:08.789Z,38.16
2023-05-19T09:18:17.743Z,37.84
2023-05-19T09:19:20.839Z,37.73
2023-05-19T09:20:22.737Z,37.87
2023-05-19T09:21:45.722Z,37.58
2023-05-19T09:22:47.570Z,37.55
2023-05-19T09:23:49.647Z,37.17
2023-05-19T09:24:52.797Z,36.90
2023-05-19T09:25:54.702Z,37.30
2023-05-19T09:27:02.259Z,37.17
2023-05-19T09:28:04.011Z,37.29
2023-05-19T09:29:14.492Z,36.89
2023-05-19T09:30:19.708Z,36.52
2023-05-19T09:31:22.557Z,36.70
2023-05-19T09:32:27.785Z,36.55
2023-05-19T09:33:30.126Z,36.36
2023-05-19T09:34:32.040Z,36.57
2023-05-19T09:35:34.808Z,36.31
2023-05-19T09:36:42.221Z,35.86
2023-05-19T09:37:44.018Z,36.04
2023-05-19T09:38:45.535Z,35.86
2023-05-19T09:39:51.984Z,35.60
2023-05-19T09:40:57.247Z,35.45
2023-05-19T09:42:04.638Z,35.49
2023-05-19T09:43:08.608Z,35.48
2023-05-19T09:44:13.926Z,35.26
2023-05-19T09:45:16.426Z,35.13
2023-05-19T09:46:18.109Z,35.29
2023-05-19T09:47:22.174Z,35.40
2023-05-19T09:48:26.598Z,36.62
2023-05-19T09:49:30.121Z,36.83
2023-05-19T09:50:32.580Z,36.96
2023-05-19T09:51:37.521Z,37.44
2023-05-19T09:52:40.745Z,37.31
2023-05-19T09:53:42.507Z,37.61
2023-05-19T09:54:44.990Z,37.69
2023-05-19T09:55:46.628Z,37.76
2023-05-19T09:56:58.600Z,37.15
2023-05-19T09:58:03.887Z,36.97
2023-05-19T09:59:07.230Z,36.80
2023-05-19T10:00:13.425Z,36.91
2023-05-19T10:01:15.463Z,37.77
2023-05-19T10:02:20.744Z,37.19
2023-05-19T10:03:24.049Z,37.42
2023-05-19T10:04:27.463Z,37.14
2023-05-19T10:05:29.845Z,37.12
2023-05-19T10:06:31.981Z,37.66
2023-05-19T10:07:34.785Z,37.54
2023-05-19T10:08:39.804Z,37.62
2023-05-19T10:09:45.468Z,38.12
2023-05-19T10:10:47.784Z,37.86
2023-05-19T10:11:52.145Z,37.94
2023-05-19T10:12:54.505Z,37.95
2023-05-19T10:13:56.604Z,37.73
2023-05-19T10:14:59.382Z,37.87
2023-05-19T10:16:01.851Z,37.86
2023-05-19T10:17:04.048Z,37.89
2023-05-19T10:18:09.057Z,37.59
2023-05-19T10:19:12.931Z,38.31
2023-05-19T10:20:17.898Z,38.23
2023-05-19T10:21:19.608Z,37.71
2023-05-19T10:22:21.784Z,38.19
2023-05-19T10:23:24.049Z,37.86
2023-05-19T10:24:26.699Z,38.13
2023-05-19T10:25:30.767Z,38.10
2023-05-19T10:26:33.712Z,37.89
2023-05-19T10:27:46.612Z,38.00
2023-05-19T10:28:49.042Z,37.72
2023-05-19T10:29:53.135Z,37.66
2023-05-19T10:30:59.381Z,37.72
2023-05-19T10:32:08.304Z,37.37
2023-05-19T10:33:13.812Z,37.25
2023-05-19T10:34:51.509Z,36.89
2023-05-19T10:36:31.431Z,37.23
2023-05-19T10:38:00.456Z,37.38
2023-05-19T10:39:08.338Z,37.39
2023-05-19T10:40:21.106Z,36.97
2023-05-19T10:41:33.445Z,37.03
2023-05-19T10:42:46.689Z,37.04
2023-05-19T10:43:56.731Z,37.13
2023-05-19T10:45:21.107Z,37.47
2023-05-19T10:46:30.218Z,37.24
2023-05-19T10:47:34.079Z,37.44
2023-05-19T10:48:38.518Z,37.49
2023-05-19T10:49:40.643Z,37.02
2023-05-19T10:50:49.022Z,36.67
2023-05-19T10:51:55.006Z,37.13
2023-05-19T10:53:00.203Z,36.80
2023-05-19T10:54:03.089Z,36.98
2023-05-19T10:55:08.690Z,36.90
2023-05-19T10:56:10.486Z,37.19
2023-05-19T10:57:18.161Z,37.67
2023-05-19T10:58:39.724Z,37.63
2023-05-19T10:59:42.067Z,37.00
2023-05-19T11:00:45.825Z,37.00
2023-05-19T11:01:48.299Z,37.42
2023-05-19T11:02:56.051Z,37.79
2023-05-19T11:03:58.111Z,37.56
2023-05-19T11:05:18.400Z,37.68
2023-05-19T11:06:26.244Z,37.24
2023-05-19T11:07:29.801Z,37.51
2023-05-19T11:08:33.574Z,37.85
2023-05-19T11:09:41.037Z,37.38
2023-05-19T11:10:46.287Z,37.86
2023-05-19T11:11:54.932Z,37.83
2023-05-19T11:13:01.982Z,37.46
2023-05-19T11:14:04.193Z,37.83
2023-05-19T11:15:11.890Z,37.42
2023-05-19T11:16:14.124Z,37.18
2023-05-19T11:17:16.345Z,37.20
2023-05-19T11:18:19.635Z,37.18
2023-05-19T11:19:29.175Z,37.59
2023-05-19T11:20:36.274Z,37.16
2023-05-19T11:21:54.982Z,37.06
2023-05-19T11:23:14.441Z,37.28
2023-05-19T11:24:40.008Z,36.87
2023-05-19T11:25:47.097Z,36.78
2023-05-19T11:26:48.830Z,37.49
2023-05-19T11:27:53.482Z,37.87
2023-05-19T11:28:55.183Z,36.76
2023-05-19T11:30:00.542Z,36.78
2023-05-19T11:32:11.256Z,36.81
2023-05-19T11:33:13.853Z,36.53
2023-05-19T11:34:16.188Z,36.60
2023-05-19T11:35:19.174Z,36.33
2023-05-19T11:36:24.177Z,35.84
2023-05-19T11:37:26.351Z,36.06
2023-05-19T11:38:30.115Z,35.78
2023-05-19T11:39:35.149Z,35.74
2023-05-19T11:40:37.141Z,35.25
2023-05-19T11:41:40.737Z,35.33
2023-05-19T11:42:47.335Z,35.48
2023-05-19T11:43:48.992Z,35.64
2023-05-19T11:44:52.939Z,35.26
2023-05-19T11:45:55.193Z,35.00
2023-05-19T11:46:57.734Z,35.19
2023-05-19T11:48:02.428Z,35.61
2023-05-19T11:49:05.786Z,35.17
2023-05-19T11:50:10.187Z,35.50
2023-05-19T11:51:11.991Z,35.38
2023-05-19T11:52:13.963Z,35.39
2023-05-19T11:53:22.086Z,35.60
2023-05-19T11:54:30.145Z,36.01
2023-05-19T11:55:32.353Z,35.97
2023-05-19T11:56:43.184Z,36.04
2023-05-19T11:58:04.436Z,35.55
2023-05-19T11:59:06.576Z,35.83
2023-05-19T12:00:09.197Z,35.82
2023-05-19T12:01:11.206Z,35.54
2023-05-19T12:02:20.091Z,36.44
2023-05-19T12:03:26.532Z,36.74
2023-05-19T12:04:28.490Z,36.62
2023-05-19T12:05:34.514Z,36.44
2023-05-19T12:06:38.240Z,36.23
2023-05-19T12:07:40.158Z,35.97
2023-05-19T12:08:41.729Z,36.30
2023-05-19T12:09:45.821Z,36.23
2023-05-19T12:10:50.921Z,36.22
2023-05-19T12:11:52.998Z,36.36
2023-05-19T12:12:55.553Z,36.27
2023-05-19T12:14:01.578Z,36.12
2023-05-19T12:15:03.986Z,36.10
2023-05-19T12:16:06.229Z,36.43
2023-05-19T12:17:16.565Z,36.92
2023-05-19T12:18:19.276Z,36.83
2023-05-19T12:19:24.181Z,36.46
2023-05-19T12:20:29.293Z,36.48
2023-05-19T12:21:34.031Z,36.54
2023-05-19T12:22:36.781Z,36.60
2023-05-19T12:23:39.057Z,36.41
2023-05-19T12:24:42.749Z,36.75
2023-05-19T12:25:47.170Z,36.44
2023-05-19T12:26:50.307Z,36.83
2023-05-19T12:27:58.026Z,36.91
2023-05-19T12:29:02.259Z,37.11
2023-05-19T12:30:05.027Z,37.27
2023-05-19T12:31:06.800Z,37.08
2023-05-19T12:32:09.103Z,36.87
2023-05-19T12:33:11.880Z,36.69
2023-05-19T12:34:15.933Z,36.81
2023-05-19T12:35:20.671Z,36.71
2023-05-19T12:36:25.378Z,36.87
2023-05-19T12:37:27.809Z,36.61
2023-05-19T12:38:29.438Z,37.12
2023-05-19T12:39:31.445Z,37.27
2023-05-19T12:40:37.539Z,36.81
2023-05-19T12:41:45.037Z,37.24
2023-05-19T12:42:48.089Z,37.49
2023-05-19T12:43:50.758Z,37.42
2023-05-19T12:44:54.731Z,37.79
2023-05-19T12:45:56.554Z,37.44
2023-05-19T12:46:59.548Z,37.37
2023-05-19T12:48:04.463Z,37.54
2023-05-19T12:49:06.272Z,37.10
2023-05-19T12:50:09.198Z,37.53
2023-05-19T12:51:20.200Z,37.07
2023-05-19T12:52:23.494Z,37.25
2023-05-19T12:53:27.256Z,36.92
2023-05-19T12:54:35.508Z,36.93
2023-05-19T12:55:43.780Z,37.17
2023-05-19T12:56:53.436Z,37.27
2023-05-19T12:57:57.843Z,37.24
2023-05-19T12:59:00.873Z,37.71
2023-05-19T13:00:08.096Z,37.36
2023-05-19T13:01:17.818Z,37.40
2023-05-19T13:02:21.002Z,36.98
2023-05-19T13:03:22.773Z,37.54
2023-05-19T13:04:30.556Z,37.83
2023-05-19T13:05:34.437Z,37.55
2023-05-19T13:06:36.096Z,37.81
2023-05-19T13:07:37.759Z,37.92
2023-05-19T13:08:42.281Z,38.08
2023-05-19T13:09:44.779Z,37.83
2023-05-19T13:10:47.714Z,38.07
2023-05-19T13:11:53.927Z,37.86
2023-05-19T13:12:56.339Z,37.54
2023-05-19T13:13:58.113Z,37.87
2023-05-19T13:15:04.737Z,37.60
2023-05-19T13:16:09.075Z,37.63
2023-05-19T13:17:10.865Z,37.62
2023-05-19T13:18:14.104Z,37.31
2023-05-19T13:19:25.401Z,37.70
2023-05-19T13:20:28.635Z,37.60
2023-05-19T13:21:30.521Z,37.60
2023-05-19T13:22:34.168Z,37.66
2023-05-19T13:23:35.909Z,37.64
2023-05-19T13:24:37.618Z,37.39
2023-05-19T13:25:39.515Z,37.42
2023-05-19T13:26:41.660Z,37.36
2023-05-19T13:27:47.208Z,36.74
2023-05-19T13:28:49.067Z,36.66
2023-05-19T13:29:53.301Z,36.99
2023-05-19T13:30:55.364Z,36.34
2023-05-19T13:31:58.106Z,36.35
2023-05-19T13:33:01.680Z,36.72
2023-05-19T13:34:03.694Z,36.61
2023-05-19T13:35:05.907Z,36.92
2023-05-19T13:36:07.578Z,36.48
2023-05-19T13:37:10.091Z,36.67
2023-05-19T13:38:11.830Z,36.90
2023-05-19T13:39:15.942Z,36.64
2023-05-19T13:40:17.660Z,36.69
2023-05-19T13:41:22.978Z,36.76
2023-05-19T13:42:24.771Z,36.70
2023-05-19T13:43:26.466Z,36.22
2023-05-19T13:44:28.111Z,36.02
2023-05-19T13:45:30.061Z,35.96
2023-05-19T13:46:44.817Z,35.54
2023-05-19T13:47:48.118Z,36.00
2023-05-19T13:48:52.048Z,36.17
2023-05-19T13:49:54.410Z,36.32
2023-05-19T13:50:56.060Z,35.73
2023-05-19T13:51:58.310Z,35.80